Time;durP1;ratioP1;P1;durP2;ratioP2;P2;SDS_P1;SDS_P2;PMS_P1;PMS_P2;Temp;Humidity;BMP_temperature;BMP_pressure;BME280_temperature;BME280_humidity;BME280_pressure;Samples;Min_cycle;Max_cycle;Signal;HPM_P1;HPM_P2
2023/09/07 00:01:16;;;;;;;;;;;18.00;79.10;;;;;;4123771;28;20326;-86
2023/09/07 00:03:40;;;;;;;;;;;17.90;79.50;;;;;;4118549;28;19972;-85
2023/09/07 00:06:00;;;;;;;;;;;17.90;79.40;;;;;;4125053;28;19924;-86
2023/09/07 00:08:19;;;;;;;;;;;17.80;80.30;;;;;;4122374;28;20476;-86
2023/09/07 00:10:38;;;;;;;;;;;17.90;80.40;;;;;;4121316;28;19943;-87
2023/09/07 00:12:57;;;;;;;;;;;17.90;79.30;;;;;;4117188;28;19992;-86
2023/09/07 00:15:18;;;;;;;;;;;17.90;79.80;;;;;;4122670;28;20342;-85
2023/09/07 00:17:38;;;;;;;;;;;17.90;79.30;;;;;;4120519;28;19928;-86
2023/09/07 00:19:58;;;;;;;;;;;17.90;80.30;;;;;;4122101;28;19949;-86
2023/09/07 00:22:17;;;;;;;;;;;17.90;79.60;;;;;;4122425;28;20401;-85
2023/09/07 00:24:36;;;;;;;;;;;17.90;79.50;;;;;;4121938;28;19929;-86
2023/09/07 00:26:56;;;;;;;;;;;17.90;80.50;;;;;;4124132;28;20386;-85
2023/09/07 00:29:15;;;;;;;;;;;17.80;80.00;;;;;;4120236;28;19968;-85
2023/09/07 00:31:34;;;;;;;;;;;17.80;80.00;;;;;;4121869;28;20016;-85
2023/09/07 00:33:54;;;;;;;;;;;17.90;79.70;;;;;;4122334;28;19988;-86
2023/09/07 00:36:13;;;;;;;;;;;17.80;79.40;;;;;;4121133;28;20326;-85
2023/09/07 00:38:32;;;;;;;;;;;17.80;79.60;;;;;;4122022;28;19964;-85
2023/09/07 00:40:51;;;;;;;;;;;17.80;80.30;;;;;;4121055;28;19972;-85
2023/09/07 00:43:11;;;;;;;;;;;17.80;79.30;;;;;;4118498;28;20009;-85
2023/09/07 00:45:30;;;;;;;;;;;17.80;79.00;;;;;;4121113;28;19976;-86
2023/09/07 00:47:50;;;;;;;;;;;17.80;80.00;;;;;;4123244;28;20047;-86
2023/09/07 00:50:09;;;;;;;;;;;17.80;79.70;;;;;;4118790;28;19924;-86
2023/09/07 00:52:28;;;;;;;;;;;17.80;79.30;;;;;;4120386;28;20306;-85
2023/09/07 00:54:47;;;;;;;;;;;17.70;78.90;;;;;;4106486;28;19960;-86
2023/09/07 00:57:07;;;;;;;;;;;17.80;78.30;;;;;;4120233;28;19932;-86
2023/09/07 00:59:27;;;;;;;;;;;17.80;78.90;;;;;;4129498;28;21381;-84
2023/09/07 01:01:46;;;;;;;;;;;17.80;78.90;;;;;;4114688;28;20768;-85
2023/09/07 01:04:06;;;;;;;;;;;17.70;79.10;;;;;;4117462;28;19925;-85
2023/09/07 01:06:51;;;;;;;;;;;17.70;79.90;;;;;;4121656;28;19928;-85
2023/09/07 01:09:14;;;;;;;;;;;17.70;79.50;;;;;;4130094;28;20035;-87
2023/09/07 01:11:37;;;;;;;;;;;17.70;79.80;;;;;;4118951;28;19929;-85
2023/09/07 01:13:57;;;;;;;;;;;17.70;79.80;;;;;;4130600;28;20318;-85
2023/09/07 01:16:16;;;;;;;;;;;17.70;80.20;;;;;;4120337;28;19928;-85
2023/09/07 01:18:37;;;;;;;;;;;17.70;80.20;;;;;;4121219;28;19980;-86
2023/09/07 01:21:00;;;;;;;;;;;17.60;80.30;;;;;;4118053;28;19952;-85
2023/09/07 01:23:01;;;;;;;;;;;17.70;81.20;;;;;;4112193;28;19918;-85
2023/09/07 01:25:02;;;;;;;;;;;17.70;80.30;;;;;;4115052;28;20519;-86
2023/09/07 01:27:03;;;;;;;;;;;17.60;80.50;;;;;;4119180;28;19914;-86
2023/09/07 01:29:03;;;;;;;;;;;17.60;80.30;;;;;;4116238;28;19925;-85
2023/09/07 01:31:05;;;;;;;;;;;17.70;79.90;;;;;;4137145;28;19932;-85
2023/09/07 01:33:06;;;;;;;;;;;17.70;80.00;;;;;;4114066;28;19922;-87
2023/09/07 01:35:09;;;;;;;;;;;17.70;80.30;;;;;;4103431;28;20062;-85
2023/09/07 01:37:10;;;;;;;;;;;17.60;80.30;;;;;;4118101;28;19946;-85
2023/09/07 01:39:11;;;;;;;;;;;17.70;80.40;;;;;;4119185;28;19918;-85
2023/09/07 01:41:12;;;;;;;;;;;17.60;80.40;;;;;;4118757;28;19925;-85
2023/09/07 01:43:13;;;;;;;;;;;17.60;80.80;;;;;;4101294;28;20383;-85
2023/09/07 01:45:13;;;;;;;;;;;17.50;81.00;;;;;;4100139;28;20337;-85
2023/09/07 01:47:15;;;;;;;;;;;17.60;81.20;;;;;;4135654;28;19972;-84
2023/09/07 01:49:15;;;;;;;;;;;17.60;81.20;;;;;;4119527;28;19965;-85
2023/09/07 01:51:17;;;;;;;;;;;17.50;81.50;;;;;;4121425;28;19923;-85
2023/09/07 01:53:17;;;;;;;;;;;17.50;81.50;;;;;;4113550;28;19918;-85
2023/09/07 01:55:18;;;;;;;;;;;17.60;81.60;;;;;;4121156;28;19959;-85
2023/09/07 01:57:19;;;;;;;;;;;17.50;81.70;;;;;;4119826;28;19965;-84
2023/09/07 01:59:19;;;;;;;;;;;17.50;82.00;;;;;;4119124;28;19914;-86
2023/09/07 02:01:23;;;;;;;;;;;17.50;82.00;;;;;;4103857;28;20000;-85
2023/09/07 02:03:27;;;;;;;;;;;17.50;81.80;;;;;;4116976;28;19928;-84
2023/09/07 02:05:28;;;;;;;;;;;17.50;82.10;;;;;;4121248;28;19956;-86
2023/09/07 02:07:28;;;;;;;;;;;17.50;82.40;;;;;;4135997;28;20415;-86
2023/09/07 02:09:29;;;;;;;;;;;17.50;82.30;;;;;;4119561;28;19917;-85
2023/09/07 02:11:30;;;;;;;;;;;17.50;82.00;;;;;;4103704;28;19927;-84
2023/09/07 02:13:31;;;;;;;;;;;17.50;82.80;;;;;;4133842;28;20403;-84
2023/09/07 02:15:31;;;;;;;;;;;17.60;82.10;;;;;;4120598;28;19917;-85
2023/09/07 02:17:32;;;;;;;;;;;17.40;81.80;;;;;;4120555;28;20012;-86
2023/09/07 02:19:33;;;;;;;;;;;17.50;81.50;;;;;;4105810;28;19962;-85
2023/09/07 02:21:34;;;;;;;;;;;17.50;81.40;;;;;;4120953;28;20351;-86
2023/09/07 02:23:36;;;;;;;;;;;17.50;81.90;;;;;;4137007;28;19917;-85
2023/09/07 02:25:37;;;;;;;;;;;17.50;81.90;;;;;;4106274;28;19926;-85
2023/09/07 02:27:44;;;;;;;;;;;17.50;81.60;;;;;;4120197;28;19914;-86
2023/09/07 02:29:48;;;;;;;;;;;17.50;82.40;;;;;;4107060;28;20504;-85
2023/09/07 02:32:12;;;;;;;;;;;17.50;82.30;;;;;;4141421;28;19948;-86
2023/09/07 02:34:36;;;;;;;;;;;17.50;82.00;;;;;;4129819;28;19926;-86
2023/09/07 02:36:57;;;;;;;;;;;17.50;81.60;;;;;;4124088;28;20040;-85
2023/09/07 02:39:18;;;;;;;;;;;17.50;82.30;;;;;;4126193;28;19914;-84
2023/09/07 02:41:38;;;;;;;;;;;17.50;81.30;;;;;;4146135;28;19917;-87
2023/09/07 02:43:59;;;;;;;;;;;17.50;81.10;;;;;;4144373;28;19913;-85
2023/09/07 02:46:20;;;;;;;;;;;17.50;81.30;;;;;;4146275;28;19925;-85
2023/09/07 02:48:40;;;;;;;;;;;17.50;81.80;;;;;;4145399;28;19925;-85
2023/09/07 02:51:01;;;;;;;;;;;17.50;82.00;;;;;;4144570;28;19902;-84
2023/09/07 02:53:21;;;;;;;;;;;17.40;81.60;;;;;;4147623;28;19973;-84
2023/09/07 02:55:42;;;;;;;;;;;17.50;81.20;;;;;;4140081;28;19913;-85
2023/09/07 02:58:03;;;;;;;;;;;17.50;80.70;;;;;;4132569;28;19936;-85
2023/09/07 03:00:23;;;;;;;;;;;17.50;81.90;;;;;;4118193;28;19922;-85
2023/09/07 03:02:44;;;;;;;;;;;17.50;82.40;;;;;;4125179;28;20012;-85
2023/09/07 03:05:05;;;;;;;;;;;17.50;81.50;;;;;;4122026;28;19922;-86
2023/09/07 03:07:26;;;;;;;;;;;17.50;81.50;;;;;;4121594;28;19921;-86
2023/09/07 03:09:46;;;;;;;;;;;17.40;82.40;;;;;;4128570;28;19936;-85
2023/09/07 03:12:07;;;;;;;;;;;17.50;81.90;;;;;;4124929;28;19918;-85
2023/09/07 03:14:28;;;;;;;;;;;17.40;82.90;;;;;;4122218;28;19969;-85
2023/09/07 03:16:54;;;;;;;;;;;17.50;82.40;;;;;;4133570;28;20013;-85
2023/09/07 03:19:14;;;;;;;;;;;17.40;82.00;;;;;;4123090;28;19925;-86
2023/09/07 03:21:35;;;;;;;;;;;17.50;81.50;;;;;;4116450;28;19965;-85
2023/09/07 03:23:56;;;;;;;;;;;17.40;81.30;;;;;;4115645;28;19921;-84
2023/09/07 03:26:17;;;;;;;;;;;17.50;81.60;;;;;;4124355;28;19920;-85
2023/09/07 03:28:40;;;;;;;;;;;17.50;81.40;;;;;;4122904;28;19965;-85
2023/09/07 03:31:01;;;;;;;;;;;17.40;82.00;;;;;;4120893;28;19936;-85
2023/09/07 03:33:22;;;;;;;;;;;17.50;82.10;;;;;;4119333;28;19922;-85
2023/09/07 03:35:43;;;;;;;;;;;17.50;81.60;;;;;;4137232;28;19928;-85
2023/09/07 03:38:03;;;;;;;;;;;17.50;81.50;;;;;;4120386;28;19918;-85
2023/09/07 03:40:24;;;;;;;;;;;17.50;81.50;;;;;;4119977;28;19957;-84
2023/09/07 03:42:48;;;;;;;;;;;17.50;81.30;;;;;;4122274;28;19968;-87
2023/09/07 03:45:11;;;;;;;;;;;17.50;81.00;;;;;;4120824;28;19924;-84
2023/09/07 03:47:32;;;;;;;;;;;17.50;81.10;;;;;;4125401;28;19921;-85
2023/09/07 03:49:52;;;;;;;;;;;17.50;83.20;;;;;;4122887;28;19917;-85
2023/09/07 03:52:13;;;;;;;;;;;17.50;83.30;;;;;;4121911;28;19926;-85
2023/09/07 03:54:36;;;;;;;;;;;17.50;83.70;;;;;;4130927;28;19921;-85
2023/09/07 03:57:02;;;;;;;;;;;17.50;83.20;;;;;;4124600;28;19936;-85
2023/09/07 03:59:23;;;;;;;;;;;17.50;83.50;;;;;;4132082;28;19910;-86
2023/09/07 04:01:44;;;;;;;;;;;17.50;83.20;;;;;;4143194;28;19944;-86
2023/09/07 04:04:05;;;;;;;;;;;17.50;84.80;;;;;;4140201;28;19922;-87
2023/09/07 04:06:28;;;;;;;;;;;17.50;85.10;;;;;;4132718;28;19921;-86
2023/09/07 04:08:49;;;;;;;;;;;17.60;85.00;;;;;;4132095;28;19930;-87
2023/09/07 04:11:09;;;;;;;;;;;17.60;85.50;;;;;;4131091;28;20016;-87
2023/09/07 04:13:30;;;;;;;;;;;17.60;85.30;;;;;;4128269;28;19961;-85
2023/09/07 04:15:58;;;;;;;;;;;17.60;85.10;;;;;;4137136;28;19914;-87
2023/09/07 04:18:18;;;;;;;;;;;17.60;85.10;;;;;;4121669;28;19932;-86
2023/09/07 04:20:37;;;;;;;;;;;17.50;86.60;;;;;;4119353;28;20434;-86
2023/09/07 04:23:05;;;;;;;;;;;17.60;84.20;;;;;;4118563;28;21376;-88
2023/09/07 04:25:25;;;;;;;;;;;17.60;85.70;;;;;;4122620;28;19944;-86
2023/09/07 04:27:46;;;;;;;;;;;17.60;86.00;;;;;;4130212;28;21471;-86
2023/09/07 04:30:06;;;;;;;;;;;17.60;86.20;;;;;;4128027;28;20056;-86
2023/09/07 04:32:26;;;;;;;;;;;17.70;85.80;;;;;;4132042;28;19956;-85
2023/09/07 04:34:45;;;;;;;;;;;17.70;86.00;;;;;;4114780;28;19948;-86
2023/09/07 04:37:05;;;;;;;;;;;17.70;86.10;;;;;;4119039;28;19989;-85
2023/09/07 04:39:24;;;;;;;;;;;17.60;85.70;;;;;;4124436;28;20005;-85
2023/09/07 04:41:43;;;;;;;;;;;17.70;86.80;;;;;;4124098;28;20434;-86
2023/09/07 04:44:03;;;;;;;;;;;17.70;87.10;;;;;;4123847;28;20287;-85
2023/09/07 04:46:22;;;;;;;;;;;17.70;86.20;;;;;;4117446;28;19987;-88
2023/09/07 04:48:44;;;;;;;;;;;17.80;86.10;;;;;;4124271;28;20016;-86
2023/09/07 04:51:05;;;;;;;;;;;17.80;86.00;;;;;;4120588;28;20116;-85
2023/09/07 04:53:24;;;;;;;;;;;17.80;85.50;;;;;;4122209;28;19928;-85
2023/09/07 04:55:44;;;;;;;;;;;17.80;86.20;;;;;;4124145;28;19984;-85
2023/09/07 04:58:03;;;;;;;;;;;17.90;86.70;;;;;;4124380;28;20013;-85
2023/09/07 05:00:22;;;;;;;;;;;17.80;85.50;;;;;;4127249;28;21407;-84
2023/09/07 05:02:43;;;;;;;;;;;17.90;85.50;;;;;;4121627;28;19980;-84
2023/09/07 05:05:02;;;;;;;;;;;17.90;85.60;;;;;;4123619;28;19920;-84
2023/09/07 05:07:21;;;;;;;;;;;17.90;85.10;;;;;;4123486;28;19992;-83
2023/09/07 05:09:56;;;;;;;;;;;17.90;84.90;;;;;;4114010;28;20012;-88
2023/09/07 05:12:18;;;;;;;;;;;17.90;84.50;;;;;;4134514;28;19924;-84
2023/09/07 05:14:37;;;;;;;;;;;17.90;84.70;;;;;;4126148;28;20512;-83
2023/09/07 05:16:57;;;;;;;;;;;17.90;84.30;;;;;;4125665;28;19968;-84
2023/09/07 05:19:16;;;;;;;;;;;18.00;83.90;;;;;;4126966;28;20290;-84
2023/09/07 05:21:36;;;;;;;;;;;18.00;85.00;;;;;;4124541;28;19924;-84
2023/09/07 05:23:55;;;;;;;;;;;18.00;85.70;;;;;;4143380;28;19936;-86
2023/09/07 05:26:14;;;;;;;;;;;18.10;85.40;;;;;;4132716;28;20404;-84
2023/09/07 05:28:33;;;;;;;;;;;18.00;84.60;;;;;;4128815;28;20060;-85
2023/09/07 05:30:52;;;;;;;;;;;18.00;84.90;;;;;;4133893;28;19952;-84
2023/09/07 05:33:15;;;;;;;;;;;18.00;84.40;;;;;;4130095;28;19964;-85
2023/09/07 05:35:34;;;;;;;;;;;18.00;84.10;;;;;;4126466;28;19968;-84
2023/09/07 05:37:53;;;;;;;;;;;18.10;83.80;;;;;;4124289;28;19924;-83
2023/09/07 05:40:13;;;;;;;;;;;18.10;84.80;;;;;;4123458;28;19924;-85
2023/09/07 05:42:32;;;;;;;;;;;18.00;85.00;;;;;;4133016;28;19925;-84
2023/09/07 05:44:51;;;;;;;;;;;18.00;84.60;;;;;;4128390;28;19949;-84
2023/09/07 05:47:11;;;;;;;;;;;18.10;85.00;;;;;;4124662;28;20509;-84
2023/09/07 05:49:30;;;;;;;;;;;18.10;84.90;;;;;;4119629;28;20067;-84
2023/09/07 05:51:49;;;;;;;;;;;18.20;85.40;;;;;;4126155;28;19932;-84
2023/09/07 05:54:09;;;;;;;;;;;18.10;84.50;;;;;;4118504;28;20054;-84
2023/09/07 05:56:30;;;;;;;;;;;18.10;84.20;;;;;;4121549;28;20517;-85
2023/09/07 05:58:49;;;;;;;;;;;18.20;85.30;;;;;;4124946;28;19925;-84
2023/09/07 06:01:08;;;;;;;;;;;18.10;84.70;;;;;;4129217;28;19921;-84
2023/09/07 06:03:27;;;;;;;;;;;18.20;85.00;;;;;;4129656;28;19928;-84
2023/09/07 06:05:46;;;;;;;;;;;18.10;85.30;;;;;;4122963;28;19927;-84
2023/09/07 06:08:07;;;;;;;;;;;18.20;85.40;;;;;;4125584;28;19941;-84
2023/09/07 06:10:27;;;;;;;;;;;18.20;85.10;;;;;;4123780;28;20920;-84
2023/09/07 06:12:47;;;;;;;;;;;18.20;85.40;;;;;;4126141;28;19971;-85
2023/09/07 06:15:07;;;;;;;;;;;18.20;85.00;;;;;;4130530;28;19929;-85
2023/09/07 06:17:26;;;;;;;;;;;18.30;84.80;;;;;;4126646;28;20247;-84
2023/09/07 06:19:32;;;;;;;;;;;18.30;84.80;;;;;;4118986;28;20505;-85
2023/09/07 06:21:33;;;;;;;;;;;18.30;84.40;;;;;;4108450;28;19922;-85
2023/09/07 06:23:34;;;;;;;;;;;18.30;84.10;;;;;;4124202;28;19918;-86
2023/09/07 06:25:35;;;;;;;;;;;18.40;83.70;;;;;;4127157;28;20334;-86
2023/09/07 06:27:35;;;;;;;;;;;18.40;83.40;;;;;;4132244;28;19913;-84
2023/09/07 06:29:36;;;;;;;;;;;18.40;83.20;;;;;;4140764;28;20361;-84
2023/09/07 06:31:37;;;;;;;;;;;18.40;83.00;;;;;;4124701;28;19937;-85
2023/09/07 06:33:37;;;;;;;;;;;18.40;83.50;;;;;;4127664;28;19917;-84
2023/09/07 06:35:38;;;;;;;;;;;18.40;83.10;;;;;;4130838;28;20022;-87
2023/09/07 06:37:41;;;;;;;;;;;18.40;82.90;;;;;;4128939;28;19918;-85
2023/09/07 06:39:45;;;;;;;;;;;18.50;83.10;;;;;;4132992;28;19913;-84
2023/09/07 06:41:46;;;;;;;;;;;18.50;83.60;;;;;;4141312;28;19940;-85
2023/09/07 06:44:07;;;;;;;;;;;18.50;83.70;;;;;;4127258;28;19944;-85
2023/09/07 06:46:27;;;;;;;;;;;18.60;83.70;;;;;;4123866;28;19922;-83
2023/09/07 06:48:29;;;;;;;;;;;18.40;83.70;;;;;;4125241;28;19922;-85
2023/09/07 06:50:50;;;;;;;;;;;18.50;84.90;;;;;;4129460;28;20518;-85
2023/09/07 06:53:10;;;;;;;;;;;18.50;84.00;;;;;;4128979;28;20368;-85
2023/09/07 06:55:31;;;;;;;;;;;18.50;84.60;;;;;;4127862;28;19914;-84
2023/09/07 06:57:53;;;;;;;;;;;18.50;84.20;;;;;;4128270;28;19921;-85
2023/09/07 07:00:14;;;;;;;;;;;18.60;84.40;;;;;;4131983;28;19925;-84
2023/09/07 07:02:35;;;;;;;;;;;18.60;83.90;;;;;;4129100;28;19918;-86
2023/09/07 07:04:56;;;;;;;;;;;18.70;83.80;;;;;;4123492;28;19918;-84
2023/09/07 07:07:16;;;;;;;;;;;18.70;84.10;;;;;;4131768;28;20016;-85
2023/09/07 07:09:37;;;;;;;;;;;18.70;83.50;;;;;;4130252;28;19961;-84
2023/09/07 07:11:59;;;;;;;;;;;18.80;83.80;;;;;;4125453;28;20378;-84
2023/09/07 07:14:19;;;;;;;;;;;18.80;84.30;;;;;;4125381;28;19920;-84
2023/09/07 07:16:40;;;;;;;;;;;18.80;84.00;;;;;;4129549;28;19924;-85
2023/09/07 07:18:40;;;;;;;;;;;18.80;84.00;;;;;;4126252;28;19917;-85
2023/09/07 07:21:01;;;;;;;;;;;18.90;83.90;;;;;;4127143;28;20004;-84
2023/09/07 07:23:22;;;;;;;;;;;18.90;83.90;;;;;;4127394;28;20055;-84
2023/09/07 07:25:42;;;;;;;;;;;18.90;83.90;;;;;;4127366;28;19922;-84
2023/09/07 07:28:05;;;;;;;;;;;19.00;83.90;;;;;;4124222;28;19928;-85
2023/09/07 07:30:29;;;;;;;;;;;19.00;83.70;;;;;;4125444;28;19925;-84
2023/09/07 07:32:50;;;;;;;;;;;19.10;83.80;;;;;;4127094;28;19918;-85
2023/09/07 07:35:11;;;;;;;;;;;19.10;83.40;;;;;;4126136;28;19922;-84
2023/09/07 07:37:32;;;;;;;;;;;19.10;83.60;;;;;;4122712;28;20041;-84
2023/09/07 07:39:52;;;;;;;;;;;19.20;83.70;;;;;;4124639;28;20555;-83
2023/09/07 07:42:13;;;;;;;;;;;19.20;83.30;;;;;;4125092;28;19953;-85
2023/09/07 07:44:33;;;;;;;;;;;19.20;83.30;;;;;;4127412;28;20420;-85
2023/09/07 07:46:54;;;;;;;;;;;19.30;83.60;;;;;;4127366;28;20728;-84
2023/09/07 07:49:14;;;;;;;;;;;19.40;83.40;;;;;;4125435;28;19922;-84
2023/09/07 07:51:35;;;;;;;;;;;19.40;83.30;;;;;;4126017;28;20005;-84
2023/09/07 07:53:56;;;;;;;;;;;19.50;83.50;;;;;;4132378;28;19914;-85
2023/09/07 07:56:20;;;;;;;;;;;19.60;83.40;;;;;;4127509;28;19928;-86
2023/09/07 07:58:40;;;;;;;;;;;19.60;83.30;;;;;;4123627;28;19922;-85
2023/09/07 08:01:01;;;;;;;;;;;19.70;83.20;;;;;;4122123;28;19922;-86
2023/09/07 08:03:22;;;;;;;;;;;19.80;83.30;;;;;;4120031;28;20465;-84
2023/09/07 08:05:42;;;;;;;;;;;19.90;83.30;;;;;;4123090;28;19924;-86
2023/09/07 08:08:03;;;;;;;;;;;19.90;83.10;;;;;;4119535;28;19933;-84
2023/09/07 08:10:24;;;;;;;;;;;20.10;83.00;;;;;;4124901;28;19918;-86
2023/09/07 08:12:45;;;;;;;;;;;20.10;83.00;;;;;;4126436;28;19914;-85
2023/09/07 08:15:05;;;;;;;;;;;20.20;82.70;;;;;;4126310;28;19917;-84
2023/09/07 08:17:26;;;;;;;;;;;20.20;80.50;;;;;;4143435;28;19952;-84
2023/09/07 08:19:48;;;;;;;;;;;20.20;78.40;;;;;;4152878;28;20184;-84
2023/09/07 08:22:09;;;;;;;;;;;20.30;77.90;;;;;;4138333;28;19929;-85
2023/09/07 08:24:30;;;;;;;;;;;20.30;78.30;;;;;;4128258;28;19956;-84
2023/09/07 08:26:51;;;;;;;;;;;20.30;78.50;;;;;;4128279;28;19918;-85
2023/09/07 08:29:11;;;;;;;;;;;20.40;78.40;;;;;;4124863;28;19924;-85
2023/09/07 08:31:33;;;;;;;;;;;20.40;78.40;;;;;;4128964;28;19936;-86
2023/09/07 08:33:55;;;;;;;;;;;20.40;77.10;;;;;;4149802;28;19906;-84
2023/09/07 08:36:17;;;;;;;;;;;20.40;77.20;;;;;;4148078;28;19906;-85
2023/09/07 08:38:37;;;;;;;;;;;20.40;77.40;;;;;;4158592;28;19972;-85
2023/09/07 08:41:00;;;;;;;;;;;20.50;78.10;;;;;;4129868;28;19963;-84
2023/09/07 08:43:21;;;;;;;;;;;20.60;78.50;;;;;;4123961;28;19918;-85
2023/09/07 08:45:47;;;;;;;;;;;20.60;78.70;;;;;;4122359;28;20005;-86
2023/09/07 08:48:09;;;;;;;;;;;20.70;78.70;;;;;;4128768;28;19914;-85
2023/09/07 08:50:30;;;;;;;;;;;20.80;78.80;;;;;;4128691;28;19914;-87
2023/09/07 08:52:52;;;;;;;;;;;20.90;78.90;;;;;;4134661;28;20004;-86
2023/09/07 08:55:13;;;;;;;;;;;21.00;78.70;;;;;;4128318;28;20411;-85
2023/09/07 08:57:34;;;;;;;;;;;21.00;78.60;;;;;;4134489;28;20449;-85
2023/09/07 08:59:53;;;;;;;;;;;21.10;78.50;;;;;;4123392;28;19971;-85
2023/09/07 09:02:12;;;;;;;;;;;21.20;78.10;;;;;;4131414;28;19996;-85
2023/09/07 09:04:32;;;;;;;;;;;21.20;76.50;;;;;;4128614;28;19917;-85
2023/09/07 09:06:52;;;;;;;;;;;21.30;75.90;;;;;;4125544;28;20537;-85
2023/09/07 09:09:23;;;;;;;;;;;21.30;75.10;;;;;;4124899;28;20306;-85
2023/09/07 09:11:43;;;;;;;;;;;21.20;72.80;;;;;;4124114;28;20314;-85
2023/09/07 09:14:05;;;;;;;;;;;21.20;73.30;;;;;;4127617;28;19925;-85
2023/09/07 09:16:25;;;;;;;;;;;21.30;73.00;;;;;;4123570;28;20016;-85
2023/09/07 09:18:52;;;;;;;;;;;21.30;73.60;;;;;;4125650;28;20715;-86
2023/09/07 09:21:11;;;;;;;;;;;21.30;73.80;;;;;;4125410;28;20019;-86
2023/09/07 09:23:32;;;;;;;;;;;21.30;72.70;;;;;;4123006;28;20417;-85
2023/09/07 09:25:51;;;;;;;;;;;21.30;73.60;;;;;;4132109;28;19940;-85
2023/09/07 09:28:10;;;;;;;;;;;21.30;72.50;;;;;;4129500;28;20390;-85
2023/09/07 09:30:43;;;;;;;;;;;21.40;72.80;;;;;;4126502;28;19917;-85
2023/09/07 09:33:02;;;;;;;;;;;21.40;72.60;;;;;;4125949;28;19920;-86
2023/09/07 09:35:23;;;;;;;;;;;21.30;72.10;;;;;;4130194;28;19929;-85
2023/09/07 09:37:46;;;;;;;;;;;21.50;72.20;;;;;;4122078;28;19935;-85
2023/09/07 09:40:05;;;;;;;;;;;21.40;72.30;;;;;;4133374;28;19924;-85
2023/09/07 09:42:25;;;;;;;;;;;21.40;71.80;;;;;;4134040;28;20428;-85
2023/09/07 09:44:44;;;;;;;;;;;21.40;73.10;;;;;;4142645;28;20346;-87
2023/09/07 09:47:04;;;;;;;;;;;21.40;72.80;;;;;;4129075;28;19968;-86
2023/09/07 09:49:23;;;;;;;;;;;21.40;72.30;;;;;;4130659;28;20591;-87
2023/09/07 09:51:43;;;;;;;;;;;21.40;70.90;;;;;;4124981;28;19953;-85
2023/09/07 09:54:05;;;;;;;;;;;21.40;71.00;;;;;;4128667;28;19963;-86
2023/09/07 09:56:26;;;;;;;;;;;21.30;71.10;;;;;;4126276;28;19976;-86
2023/09/07 09:58:45;;;;;;;;;;;21.30;71.40;;;;;;4127927;28;20441;-86
2023/09/07 10:01:05;;;;;;;;;;;21.20;71.50;;;;;;4126241;28;19957;-85
2023/09/07 10:03:28;;;;;;;;;;;21.20;71.90;;;;;;4128702;28;20422;-86
2023/09/07 10:05:47;;;;;;;;;;;21.20;71.50;;;;;;4125443;28;19929;-88
2023/09/07 10:08:11;;;;;;;;;;;21.20;71.80;;;;;;4127840;28;20306;-87
2023/09/07 10:10:35;;;;;;;;;;;21.10;71.70;;;;;;4132832;28;19967;-86
2023/09/07 10:12:54;;;;;;;;;;;21.10;72.00;;;;;;4126681;28;20330;-85
2023/09/07 10:15:21;;;;;;;;;;;21.20;73.40;;;;;;4130842;28;19925;-86
2023/09/07 10:17:39;;;;;;;;;;;21.20;73.20;;;;;;4134406;28;19932;-85
2023/09/07 10:20:07;;;;;;;;;;;21.20;72.90;;;;;;4146304;28;19931;-85
2023/09/07 10:22:30;;;;;;;;;;;21.20;73.20;;;;;;4134375;28;19929;-86
2023/09/07 10:24:57;;;;;;;;;;;21.30;72.60;;;;;;4128912;28;19933;-85
2023/09/07 10:27:16;;;;;;;;;;;21.40;73.00;;;;;;4135744;28;19924;-86
2023/09/07 10:29:46;;;;;;;;;;;21.40;73.80;;;;;;4130627;28;19933;-85
2023/09/07 10:32:06;;;;;;;;;;;21.40;73.10;;;;;;4125815;28;19924;-85
2023/09/07 10:34:37;;;;;;;;;;;21.50;72.10;;;;;;4127158;28;19920;-86
2023/09/07 10:36:56;;;;;;;;;;;21.50;72.00;;;;;;4133174;28;19964;-84
2023/09/07 10:39:16;;;;;;;;;;;21.50;71.90;;;;;;4128042;28;19925;-85
2023/09/07 10:41:45;;;;;;;;;;;21.50;71.60;;;;;;4133012;28;19924;-86
2023/09/07 10:44:13;;;;;;;;;;;21.50;71.40;;;;;;4132939;28;19937;-86
2023/09/07 10:46:32;;;;;;;;;;;21.60;71.60;;;;;;4128616;28;19925;-85
2023/09/07 10:48:52;;;;;;;;;;;21.60;71.40;;;;;;4132050;28;20473;-86
2023/09/07 10:51:14;;;;;;;;;;;21.60;71.30;;;;;;4131808;28;19920;-87
2023/09/07 10:53:33;;;;;;;;;;;21.50;69.90;;;;;;4127075;28;20438;-85
2023/09/07 10:55:53;;;;;;;;;;;21.50;70.20;;;;;;4132266;28;20566;-85
2023/09/07 10:58:12;;;;;;;;;;;21.50;70.60;;;;;;4129653;28;20393;-86
2023/09/07 11:00:31;;;;;;;;;;;21.50;71.00;;;;;;4127721;28;19963;-85
2023/09/07 11:02:51;;;;;;;;;;;21.50;71.50;;;;;;4126902;28;19945;-84
2023/09/07 11:05:10;;;;;;;;;;;21.50;71.50;;;;;;4131108;28;19925;-85
2023/09/07 11:07:29;;;;;;;;;;;21.50;72.00;;;;;;4134862;28;20480;-86
2023/09/07 11:09:51;;;;;;;;;;;21.60;71.70;;;;;;4127059;28;19977;-87
2023/09/07 11:12:15;;;;;;;;;;;21.50;71.40;;;;;;4132416;28;19924;-85
2023/09/07 11:14:34;;;;;;;;;;;21.50;71.20;;;;;;4131966;28;19941;-86
2023/09/07 11:16:55;;;;;;;;;;;21.50;71.30;;;;;;4125295;28;20304;-85
2023/09/07 11:19:18;;;;;;;;;;;21.50;71.80;;;;;;4125279;28;19924;-84
2023/09/07 11:21:39;;;;;;;;;;;21.40;71.30;;;;;;4131095;28;19924;-85
2023/09/07 11:23:58;;;;;;;;;;;21.40;71.30;;;;;;4143147;28;19925;-86
2023/09/07 11:26:17;;;;;;;;;;;21.30;70.60;;;;;;4129095;28;19924;-85
2023/09/07 11:28:37;;;;;;;;;;;21.30;70.50;;;;;;4141962;28;19924;-85
2023/09/07 11:30:57;;;;;;;;;;;21.30;71.10;;;;;;4132494;28;20476;-84
2023/09/07 11:33:16;;;;;;;;;;;21.30;71.60;;;;;;4127297;28;20338;-85
2023/09/07 11:38:36;;;;;;;;;;;21.30;72.80;;;;;;4126996;28;19972;-86
2023/09/07 11:40:56;;;;;;;;;;;21.20;72.90;;;;;;4127122;28;20779;-85
2023/09/07 11:43:16;;;;;;;;;;;21.30;73.10;;;;;;4130107;28;19948;-84
2023/09/07 11:45:39;;;;;;;;;;;21.30;73.60;;;;;;4190819;23;19976;-84
2023/09/07 11:48:19;;;;;;;;;;;21.30;73.10;;;;;;4151936;28;20132;-86
2023/09/07 11:50:38;;;;;;;;;;;21.40;73.70;;;;;;4149957;28;20036;-85
2023/09/07 11:52:57;;;;;;;;;;;21.40;72.40;;;;;;4144622;28;19960;-85
2023/09/07 11:55:43;;;;;;;;;;;21.40;72.90;;;;;;4146417;28;20350;-86
2023/09/07 11:58:11;;;;;;;;;;;21.40;72.00;;;;;;4153007;28;19924;-85
2023/09/07 12:00:36;;;;;;;;;;;21.40;71.60;;;;;;4151650;28;19924;-86
2023/09/07 12:02:55;;;;;;;;;;;21.30;71.10;;;;;;4147038;28;20297;-86
2023/09/07 12:05:19;;;;;;;;;;;21.30;71.40;;;;;;4151170;28;19971;-86
2023/09/07 12:07:44;;;;;;;;;;;21.30;71.10;;;;;;4165998;28;19970;-85
2023/09/07 12:10:04;;;;;;;;;;;21.30;71.70;;;;;;4151413;28;19927;-86
2023/09/07 12:12:23;;;;;;;;;;;21.30;73.30;;;;;;4153826;28;20450;-85
2023/09/07 12:14:42;;;;;;;;;;;21.30;72.60;;;;;;4155648;28;20493;-86
2023/09/07 12:17:03;;;;;;;;;;;21.30;72.80;;;;;;4151302;28;20142;-84
2023/09/07 12:19:22;;;;;;;;;;;21.30;72.60;;;;;;4153458;28;20020;-85
2023/09/07 12:21:43;;;;;;;;;;;21.40;72.50;;;;;;4152954;28;19927;-84
2023/09/07 12:24:02;;;;;;;;;;;21.30;71.50;;;;;;4153345;28;19966;-86
2023/09/07 12:26:22;;;;;;;;;;;21.30;72.10;;;;;;4156765;28;20165;-88
2023/09/07 12:28:42;;;;;;;;;;;21.30;72.20;;;;;;4153988;28;20024;-87
2023/09/07 12:31:01;;;;;;;;;;;21.30;72.40;;;;;;4148519;28;20012;-88
2023/09/07 12:33:33;;;;;;;;;;;21.30;72.70;;;;;;4153425;28;20380;-87
2023/09/07 12:35:52;;;;;;;;;;;21.30;72.60;;;;;;4153450;28;20275;-87
2023/09/07 12:38:15;;;;;;;;;;;21.30;72.00;;;;;;4146728;28;19980;-88
2023/09/07 12:40:34;;;;;;;;;;;21.40;72.20;;;;;;4148538;28;19924;-87
2023/09/07 12:42:53;;;;;;;;;;;21.40;72.20;;;;;;4165136;28;20030;-87
2023/09/07 12:45:15;;;;;;;;;;;21.40;71.80;;;;;;4151602;28;19924;-88
2023/09/07 12:47:34;;;;;;;;;;;21.40;72.30;;;;;;4166940;28;19994;-87
2023/09/07 12:49:54;;;;;;;;;;;21.40;71.30;;;;;;4151641;28;19978;-87
2023/09/07 12:52:15;;;;;;;;;;;21.40;71.50;;;;;;4149734;28;20401;-86
2023/09/07 12:54:37;;;;;;;;;;;21.30;71.40;;;;;;4160223;28;19924;-86
2023/09/07 12:56:56;;;;;;;;;;;21.30;72.60;;;;;;4150996;28;19968;-86
2023/09/07 12:59:16;;;;;;;;;;;21.30;72.00;;;;;;4152318;28;19923;-86
2023/09/07 13:01:35;;;;;;;;;;;21.30;72.20;;;;;;4149464;28;19927;-87
2023/09/07 13:04:12;;;;;;;;;;;21.40;72.20;;;;;;4161459;28;19955;-88
2023/09/07 13:06:32;;;;;;;;;;;21.30;71.30;;;;;;4153529;28;19971;-88
2023/09/07 13:08:51;;;;;;;;;;;21.30;71.30;;;;;;4152493;28;19943;-87
2023/09/07 13:11:10;;;;;;;;;;;21.30;71.70;;;;;;4149913;28;19923;-88
2023/09/07 13:13:33;;;;;;;;;;;21.30;71.70;;;;;;4152750;28;19924;-87
2023/09/07 13:15:52;;;;;;;;;;;21.20;71.80;;;;;;4152201;28;19946;-87
2023/09/07 13:18:12;;;;;;;;;;;21.30;71.90;;;;;;4153971;28;19916;-87
2023/09/07 13:20:31;;;;;;;;;;;21.40;71.70;;;;;;4153362;28;19975;-87
2023/09/07 13:22:51;;;;;;;;;;;21.40;72.80;;;;;;4151399;28;19923;-88
2023/09/07 13:25:11;;;;;;;;;;;21.50;72.00;;;;;;4150435;28;19971;-87
2023/09/07 13:27:30;;;;;;;;;;;21.50;71.20;;;;;;4152944;28;19924;-84